Time;durP1;ratioP1;P1;durP2;ratioP2;P2;SDS_P1;SDS_P2;PMS_P1;PMS_P2;Temp;Humidity;BMP_temperature;BMP_pressure;BME280_temperature;BME280_humidity;BME280_pressure;Samples;Min_cycle;Max_cycle;Signal;HPM_P1;HPM_P2
2022/12/04 00:01:13;;;;;;;30.93;10.17;;;4.10;99.90;;;;;;5098966;28;20378;-76
2022/12/04 00:03:39;;;;;;;28.03;9.27;;;4.10;99.90;;;;;;5110483;28;20024;-77
2022/12/04 00:06:07;;;;;;;29.83;10.40;;;4.10;99.90;;;;;;5106868;28;20031;-77
2022/12/04 00:08:33;;;;;;;24.50;9.47;;;4.10;99.90;;;;;;5101151;28;20464;-76
2022/12/04 00:10:59;;;;;;;24.63;9.23;;;4.00;99.90;;;;;;5111533;28;20435;-76
2022/12/04 00:13:25;;;;;;;25.33;9.27;;;4.00;99.90;;;;;;5113646;28;20027;-76
2022/12/04 00:15:51;;;;;;;26.60;9.30;;;4.10;99.90;;;;;;5094686;28;20122;-77
2022/12/04 00:18:17;;;;;;;26.40;9.90;;;4.00;99.90;;;;;;5112747;28;20036;-78
2022/12/04 00:20:42;;;;;;;26.30;10.30;;;4.10;99.90;;;;;;5113870;28;20034;-78
2022/12/04 00:23:08;;;;;;;27.13;9.40;;;4.00;99.90;;;;;;5107329;28;20024;-77
2022/12/04 00:25:33;;;;;;;27.07;9.47;;;4.10;99.90;;;;;;5111728;28;20023;-76
2022/12/04 00:27:59;;;;;;;27.10;9.57;;;4.10;99.90;;;;;;5092835;28;20032;-75
2022/12/04 00:30:25;;;;;;;22.03;9.50;;;4.00;99.90;;;;;;5100491;28;20084;-77
2022/12/04 00:32:50;;;;;;;22.27;9.17;;;4.00;99.90;;;;;;5101003;28;20481;-76
2022/12/04 00:35:16;;;;;;;23.93;9.47;;;4.10;99.90;;;;;;5091912;28;20074;-76
2022/12/04 00:37:41;;;;;;;24.10;8.80;;;4.00;99.90;;;;;;5108206;28;20035;-76
2022/12/04 00:40:08;;;;;;;25.47;9.20;;;4.10;99.90;;;;;;5092146;28;20169;-77
2022/12/04 00:42:33;;;;;;;28.67;10.00;;;4.10;99.90;;;;;;5106894;28;20035;-77
2022/12/04 00:44:59;;;;;;;20.57;8.37;;;4.10;99.90;;;;;;5112510;28;20028;-77
2022/12/04 00:47:24;;;;;;;22.07;8.83;;;4.10;99.90;;;;;;5096260;28;20058;-77
2022/12/04 00:49:50;;;;;;;32.37;13.03;;;4.10;99.90;;;;;;5109576;28;20376;-77
2022/12/04 00:52:16;;;;;;;24.53;9.10;;;4.10;99.90;;;;;;5093059;28;20023;-77
2022/12/04 00:54:41;;;;;;;23.10;8.67;;;4.10;99.90;;;;;;5095097;28;20024;-78
2022/12/04 00:57:07;;;;;;;22.33;8.93;;;4.00;99.90;;;;;;5105660;28;20407;-77
2022/12/04 00:59:33;;;;;;;23.53;9.17;;;4.00;99.90;;;;;;5112058;28;20058;-77
2022/12/04 01:01:58;;;;;;;21.93;8.33;;;4.00;99.90;;;;;;5112093;28;20509;-77
2022/12/04 01:04:24;;;;;;;23.87;9.10;;;4.00;99.90;;;;;;5104469;28;20419;-77
2022/12/04 01:06:49;;;;;;;22.37;8.33;;;4.10;99.90;;;;;;5092799;28;20441;-77
2022/12/04 01:09:15;;;;;;;22.20;9.00;;;4.00;99.90;;;;;;5093052;28;20025;-76
2022/12/04 01:11:41;;;;;;;21.07;8.50;;;4.00;99.90;;;;;;5107709;28;20028;-76
2022/12/04 01:14:06;;;;;;;24.33;8.60;;;4.00;99.90;;;;;;5092551;28;20031;-76
2022/12/04 01:16:35;;;;;;;23.40;9.13;;;4.00;99.90;;;;;;5100209;28;20135;-77
2022/12/04 01:19:01;;;;;;;20.87;8.77;;;4.00;99.90;;;;;;5098698;28;20127;-77
2022/12/04 01:21:26;;;;;;;23.37;8.93;;;4.00;99.90;;;;;;5108688;28;20392;-77
2022/12/04 01:23:52;;;;;;;24.00;9.27;;;4.10;99.90;;;;;;5102734;28;20032;-77
2022/12/04 01:26:18;;;;;;;20.17;8.53;;;4.10;99.90;;;;;;5105471;28;20024;-77
2022/12/04 01:28:43;;;;;;;22.30;8.40;;;4.00;99.90;;;;;;5092720;28;20449;-77
2022/12/04 01:31:16;;;;;;;22.00;8.77;;;4.10;99.90;;;;;;5107008;28;20024;-77
2022/12/04 01:33:42;;;;;;;20.77;7.83;;;4.00;99.90;;;;;;5112875;28;20111;-77
2022/12/04 01:36:10;;;;;;;21.20;8.93;;;4.00;99.90;;;;;;5112582;28;20046;-77
2022/12/04 01:38:37;;;;;;;20.97;8.33;;;4.10;99.90;;;;;;5103347;28;20039;-78
2022/12/04 01:41:03;;;;;;;25.70;8.57;;;4.00;99.90;;;;;;5104891;28;20070;-77
2022/12/04 01:43:31;;;;;;;19.00;7.87;;;4.00;99.90;;;;;;5095428;28;20433;-77
2022/12/04 01:46:01;;;;;;;21.10;8.80;;;4.00;99.90;;;;;;5090695;28;20031;-76
2022/12/04 01:48:50;;;;;;;23.17;8.70;;;4.00;99.90;;;;;;5102346;28;20024;-76
2022/12/04 01:51:18;;;;;;;20.37;8.40;;;4.10;99.90;;;;;;5100176;28;20358;-76
2022/12/04 01:53:51;;;;;;;18.23;8.00;;;4.00;99.90;;;;;;5094313;28;20028;-77
2022/12/04 01:56:21;;;;;;;22.17;9.00;;;4.00;99.90;;;;;;5103404;28;20407;-76
2022/12/04 01:58:50;;;;;;;22.70;8.37;;;4.00;99.90;;;;;;5103837;28;20031;-76
2022/12/04 02:01:16;;;;;;;19.17;8.20;;;4.00;99.90;;;;;;5096662;28;20389;-77
2022/12/04 02:03:42;;;;;;;20.70;8.67;;;4.10;99.90;;;;;;5097830;28;20474;-77
2022/12/04 02:06:07;;;;;;;23.30;9.07;;;4.00;99.90;;;;;;5115345;28;20092;-76
2022/12/04 02:08:34;;;;;;;23.53;8.77;;;4.10;99.90;;;;;;5106341;28;20035;-77
2022/12/04 02:11:24;;;;;;;21.87;8.70;;;4.00;99.90;;;;;;5108810;28;20023;-77
2022/12/04 02:13:58;;;;;;;21.73;9.03;;;4.00;99.90;;;;;;5111609;28;20027;-77
2022/12/04 02:16:37;;;;;;;20.57;8.27;;;4.00;99.90;;;;;;5103825;28;20087;-76
2022/12/04 02:19:42;;;;;;;20.57;8.10;;;4.00;99.90;;;;;;5114953;28;20070;-77
2022/12/04 02:22:23;;;;;;;19.90;8.33;;;4.00;99.90;;;;;;5101419;28;20461;-76
2022/12/04 02:25:34;;;;;;;19.47;8.33;;;4.00;99.90;;;;;;5097464;28;20115;-76
2022/12/04 02:28:05;;;;;;;21.10;8.37;;;4.10;99.90;;;;;;5098895;28;20472;-76
2022/12/04 02:30:35;;;;;;;17.70;7.38;;;4.00;99.90;;;;;;5116195;28;20050;-76
2022/12/04 02:33:13;;;;;;;19.27;8.20;;;4.10;99.90;;;;;;5102868;28;20032;-76
2022/12/04 02:35:44;;;;;;;20.43;7.97;;;4.10;99.90;;;;;;5112023;28;20103;-77
2022/12/04 02:38:24;;;;;;;17.47;8.27;;;4.10;99.90;;;;;;5094362;28;20024;-76
2022/12/04 02:41:04;;;;;;;21.43;8.83;;;4.10;99.90;;;;;;5106032;28;20098;-76
2022/12/04 02:43:37;;;;;;;17.90;7.40;;;4.10;99.90;;;;;;5098792;28;20056;-76
2022/12/04 02:46:12;;;;;;;21.03;8.60;;;4.10;99.90;;;;;;5114309;28;20528;-76
2022/12/04 02:48:41;;;;;;;18.23;7.97;;;4.10;99.90;;;;;;5103721;28;20036;-77
2022/12/04 02:51:11;;;;;;;18.33;7.93;;;4.00;99.90;;;;;;5107852;28;20023;-77
2022/12/04 02:53:43;;;;;;;19.13;7.90;;;4.00;99.90;;;;;;5103194;28;20082;-78
2022/12/04 02:56:13;;;;;;;21.67;8.77;;;4.00;99.90;;;;;;5115669;28;20102;-76
2022/12/04 02:58:52;;;;;;;18.30;8.20;;;4.00;99.90;;;;;;5103179;28;20044;-77
2022/12/04 03:01:23;;;;;;;19.63;8.43;;;4.00;99.90;;;;;;5094111;28;20401;-76
2022/12/04 03:03:59;;;;;;;18.80;8.07;;;4.10;99.90;;;;;;5094472;28;20032;-76
2022/12/04 03:06:27;;;;;;;18.67;8.13;;;4.00;99.90;;;;;;5101755;28;20057;-76
2022/12/04 03:09:10;;;;;;;20.30;8.20;;;4.00;99.90;;;;;;5113450;28;20372;-76
2022/12/04 03:11:38;;;;;;;20.10;8.33;;;4.00;99.90;;;;;;5113487;28;20024;-77
2022/12/04 03:14:16;;;;;;;17.27;8.37;;;4.00;99.90;;;;;;5099866;28;20023;-76
2022/12/04 03:16:42;;;;;;;18.33;8.17;;;4.00;99.90;;;;;;5112908;28;20055;-76
2022/12/04 03:19:33;;;;;;;19.13;8.57;;;4.00;99.90;;;;;;5099519;28;20035;-76
2022/12/04 03:22:03;;;;;;;21.10;8.67;;;4.10;99.90;;;;;;5098336;28;20035;-76
2022/12/04 03:24:35;;;;;;;16.77;8.00;;;4.10;99.90;;;;;;5113863;28;20031;-76
2022/12/04 03:27:15;;;;;;;18.33;7.78;;;4.00;99.90;;;;;;5113512;28;20034;-76
2022/12/04 03:29:43;;;;;;;17.83;7.57;;;4.00;99.90;;;;;;5112444;28;20447;-77
2022/12/04 03:32:16;;;;;;;22.50;8.97;;;4.00;99.90;;;;;;5099603;28;20411;-77
2022/12/04 03:35:08;;;;;;;21.50;8.57;;;4.00;99.90;;;;;;5112561;28;20032;-76
2022/12/04 03:37:52;;;;;;;19.48;8.48;;;4.00;99.90;;;;;;5096560;28;20119;-76
2022/12/04 03:40:24;;;;;;;20.27;8.37;;;4.00;99.90;;;;;;5105848;28;20077;-76
2022/12/04 03:43:28;;;;;;;21.42;8.68;;;4.00;99.90;;;;;;5104052;28;20028;-76
2022/12/04 03:46:09;;;;;;;18.87;8.73;;;4.00;99.90;;;;;;5095823;28;20024;-76
2022/12/04 03:48:44;;;;;;;19.92;8.18;;;4.00;99.90;;;;;;5112546;28;20035;-77
2022/12/04 03:51:26;;;;;;;18.17;8.07;;;4.00;99.90;;;;;;5099415;28;20020;-76
2022/12/04 03:53:56;;;;;;;;;;;4.00;99.90;;;;;;5102332;28;20030;-76
2022/12/04 03:56:26;;;;;;;17.17;7.40;;;4.10;99.90;;;;;;5112503;28;20369;-76
2022/12/04 03:58:57;;;;;;;19.73;8.13;;;4.00;99.90;;;;;;5100774;28;20057;-76
2022/12/04 04:01:29;;;;;;;21.67;8.60;;;4.00;99.90;;;;;;5094024;28;20028;-76
2022/12/04 04:03:57;;;;;;;20.15;8.50;;;4.00;99.90;;;;;;5093475;28;20714;-76
2022/12/04 04:06:33;;;;;;;19.00;8.30;;;4.00;99.90;;;;;;5093101;28;20123;-76
2022/12/04 04:09:07;;;;;;;20.60;8.67;;;4.00;99.90;;;;;;5092672;28;20425;-76
2022/12/04 04:11:46;;;;;;;19.00;8.50;;;3.90;99.90;;;;;;5091281;28;20046;-76
2022/12/04 04:25:44;;;;;;;22.17;8.00;;;4.10;99.90;;;;;;5113160;28;20034;-76
2022/12/04 04:28:30;;;;;;;18.20;7.93;;;4.00;99.90;;;;;;5113907;28;20057;-76
2022/12/04 04:31:18;;;;;;;20.40;8.17;;;4.10;99.90;;;;;;5112178;28;20027;-77
2022/12/04 04:34:02;;;;;;;23.10;8.23;;;4.00;99.90;;;;;;5112020;28;20027;-77
2022/12/04 04:36:41;;;;;;;17.87;6.97;;;4.00;99.90;;;;;;5112622;28;20027;-76
2022/12/04 04:39:19;;;;;;;22.53;8.10;;;4.10;99.90;;;;;;5113007;28;20106;-75
2022/12/04 04:42:02;;;;;;;20.07;7.80;;;4.10;99.90;;;;;;5110696;28;20031;-76
2022/12/04 04:44:48;;;;;;;18.63;7.83;;;4.10;99.90;;;;;;5093452;28;20445;-75
2022/12/04 04:47:26;;;;;;;17.87;7.20;;;4.10;99.90;;;;;;5092206;28;20032;-76
2022/12/04 04:49:54;;;;;;;17.50;8.10;;;4.10;99.90;;;;;;5109297;28;20081;-76
2022/12/04 04:52:22;;;;;;;17.17;7.23;;;4.10;99.90;;;;;;5091902;28;20028;-75
2022/12/04 04:54:48;;;;;;;17.57;7.67;;;4.10;99.90;;;;;;5103671;28;20023;-76
2022/12/04 04:57:28;;;;;;;17.03;7.70;;;4.10;99.90;;;;;;5111477;28;20468;-75
2022/12/04 04:59:53;;;;;;;18.00;7.43;;;4.10;99.90;;;;;;5091180;28;20023;-76
2022/12/04 05:02:19;;;;;;;18.50;7.90;;;4.10;99.90;;;;;;5095575;28;20030;-77
2022/12/04 05:04:44;;;;;;;18.30;8.00;;;4.10;99.90;;;;;;5098209;28;20028;-77
2022/12/04 05:07:10;;;;;;;18.63;8.20;;;4.10;99.90;;;;;;5110358;28;20084;-76
2022/12/04 05:09:35;;;;;;;19.87;8.03;;;4.10;99.90;;;;;;5097345;28;20107;-76
2022/12/04 05:12:01;;;;;;;19.30;7.70;;;4.10;99.90;;;;;;5091945;28;20031;-77
2022/12/04 05:14:27;;;;;;;17.37;7.20;;;4.10;99.90;;;;;;5103637;28;20023;-77
2022/12/04 05:16:52;;;;;;;17.87;7.17;;;4.10;99.90;;;;;;5096260;28;20432;-77
2022/12/04 05:22:02;;;;;;;17.33;7.43;;;4.10;99.90;;;;;;5100353;28;20039;-76
2022/12/04 05:24:28;;;;;;;17.33;7.50;;;4.10;99.90;;;;;;5115679;28;20028;-77
2022/12/04 05:26:53;;;;;;;17.67;7.00;;;4.10;99.90;;;;;;5102778;28;20032;-77
2022/12/04 05:29:19;;;;;;;19.30;7.83;;;4.10;99.90;;;;;;5095387;28;20084;-77
2022/12/04 05:31:45;;;;;;;18.07;7.20;;;4.20;99.90;;;;;;5114757;28;20679;-77
2022/12/04 05:34:10;;;;;;;13.50;7.07;;;4.10;99.90;;;;;;5113333;28;20062;-76
2022/12/04 05:36:36;;;;;;;17.77;7.57;;;4.20;99.90;;;;;;5111604;28;20023;-77
2022/12/04 05:39:01;;;;;;;17.37;7.37;;;4.20;99.90;;;;;;5111998;28;20032;-79
2022/12/04 05:41:27;;;;;;;16.17;7.37;;;4.20;99.90;;;;;;5107978;28;20115;-77
2022/12/04 05:43:53;;;;;;;15.70;7.50;;;4.20;99.90;;;;;;5110223;28;20031;-76
2022/12/04 05:46:18;;;;;;;18.77;7.67;;;4.20;99.90;;;;;;5097514;28;20115;-77
2022/12/04 05:48:44;;;;;;;19.93;8.20;;;4.20;99.90;;;;;;5108693;28;20365;-76
2022/12/04 05:51:10;;;;;;;16.93;7.93;;;4.10;99.90;;;;;;5098638;28;20095;-77
2022/12/04 05:53:36;;;;;;;16.50;7.10;;;4.10;99.90;;;;;;5104303;28;20061;-76
2022/12/04 05:56:03;;;;;;;18.30;7.43;;;4.10;99.90;;;;;;5111476;28;20020;-76
2022/12/04 05:58:29;;;;;;;17.57;7.87;;;4.10;99.90;;;;;;5105334;28;20028;-77
2022/12/04 06:00:55;;;;;;;15.50;6.63;;;4.10;99.90;;;;;;5088992;28;20039;-76
2022/12/04 06:03:21;;;;;;;16.80;6.83;;;4.10;99.90;;;;;;5110268;28;21241;-77
2022/12/04 06:05:47;;;;;;;14.60;6.87;;;4.20;99.90;;;;;;5110564;28;20024;-77
2022/12/04 06:08:13;;;;;;;14.40;7.00;;;4.20;99.90;;;;;;5104073;28;20493;-77
2022/12/04 06:10:38;;;;;;;16.30;8.03;;;4.20;99.90;;;;;;5102829;28;20031;-78
2022/12/04 06:13:05;;;;;;;16.67;6.90;;;4.20;99.90;;;;;;5110397;28;20023;-76
2022/12/04 06:15:31;;;;;;;16.67;7.17;;;4.20;99.90;;;;;;5107103;28;20093;-76
2022/12/04 06:17:56;;;;;;;18.10;7.83;;;4.20;99.90;;;;;;5110202;28;20051;-77
2022/12/04 06:20:22;;;;;;;15.70;6.73;;;4.20;99.90;;;;;;5104675;28;20073;-77
2022/12/04 06:22:47;;;;;;;15.37;7.10;;;4.20;99.90;;;;;;5099088;28;20027;-77
2022/12/04 06:25:13;;;;;;;18.20;7.67;;;4.20;99.90;;;;;;5111031;28;20460;-77
2022/12/04 06:27:38;;;;;;;16.83;7.10;;;4.20;99.90;;;;;;5097967;28;20069;-76
2022/12/04 06:30:05;;;;;;;17.13;6.87;;;4.10;99.90;;;;;;5099799;28;20068;-77
2022/12/04 06:32:30;;;;;;;17.90;6.43;;;4.10;99.90;;;;;;5115351;28;20063;-77
2022/12/04 06:34:56;;;;;;;16.37;7.30;;;4.20;99.90;;;;;;5109397;28;20311;-77
2022/12/04 06:37:24;;;;;;;17.37;7.40;;;4.10;99.90;;;;;;5098869;28;20047;-77
2022/12/04 06:39:49;;;;;;;17.87;7.53;;;4.20;99.90;;;;;;5109933;28;20119;-77
2022/12/04 06:42:15;;;;;;;17.87;7.63;;;4.20;99.90;;;;;;5114320;28;20080;-77
2022/12/04 06:44:40;;;;;;;16.63;7.80;;;4.20;99.90;;;;;;5113812;28;20055;-77
2022/12/04 06:47:07;;;;;;;17.23;7.50;;;4.20;99.90;;;;;;5096849;28;20057;-77
2022/12/04 06:49:33;;;;;;;17.13;7.10;;;4.10;99.90;;;;;;5099803;28;20061;-77
2022/12/04 06:51:58;;;;;;;18.80;6.87;;;4.20;99.90;;;;;;5109650;28;20023;-77
2022/12/04 06:54:24;;;;;;;17.87;7.13;;;4.20;99.90;;;;;;5096353;28;20021;-77
2022/12/04 06:56:50;;;;;;;19.77;6.80;;;4.20;99.90;;;;;;5106962;28;20658;-77
2022/12/04 06:59:16;;;;;;;15.07;6.50;;;4.20;99.90;;;;;;5111601;28;20165;-78
2022/12/04 07:01:41;;;;;;;16.90;7.00;;;4.20;99.90;;;;;;5107841;28;20465;-77
2022/12/04 07:04:07;;;;;;;16.73;8.00;;;4.30;99.90;;;;;;5103559;28;20031;-77
2022/12/04 07:06:38;;;;;;;16.20;6.90;;;4.30;99.90;;;;;;5102728;28;20095;-77
2022/12/04 07:09:10;;;;;;;14.87;6.83;;;4.20;99.90;;;;;;5109895;28;20028;-77
2022/12/04 07:11:36;;;;;;;15.13;6.38;;;4.20;99.90;;;;;;5097744;28;20049;-76
2022/12/04 07:14:02;;;;;;;16.37;6.23;;;4.30;99.90;;;;;;5106618;28;20028;-77
2022/12/04 07:16:28;;;;;;;15.63;6.70;;;4.30;99.90;;;;;;5092993;28;20058;-77
2022/12/04 07:18:57;;;;;;;13.83;6.23;;;4.30;99.90;;;;;;5109154;28;20031;-77
2022/12/04 07:21:28;;;;;;;16.60;6.83;;;4.20;99.90;;;;;;5094263;28;20118;-77
2022/12/04 07:23:56;;;;;;;16.80;7.27;;;4.30;99.90;;;;;;5099719;28;20156;-77
2022/12/04 07:26:23;;;;;;;14.67;6.73;;;4.30;99.90;;;;;;5103569;28;20093;-77
2022/12/04 07:28:49;;;;;;;16.97;6.63;;;4.30;99.90;;;;;;5093526;28;20032;-77
2022/12/04 07:31:20;;;;;;;19.60;7.40;;;4.30;99.90;;;;;;5112244;28;20034;-77
2022/12/04 07:33:47;;;;;;;16.37;6.90;;;4.40;99.90;;;;;;5112625;28;20031;-76
2022/12/04 07:36:15;;;;;;;16.13;6.50;;;4.40;99.90;;;;;;5114693;28;20055;-77
2022/12/04 07:38:41;;;;;;;18.00;7.00;;;4.40;99.90;;;;;;5112531;28;20030;-78
2022/12/04 07:41:09;;;;;;;15.77;6.50;;;4.40;99.90;;;;;;5113281;28;20027;-77
2022/12/04 07:43:35;;;;;;;16.63;7.00;;;4.40;99.90;;;;;;5113243;28;20419;-77
2022/12/04 07:46:06;;;;;;;17.23;7.20;;;4.30;99.90;;;;;;5112474;28;20053;-77
2022/12/04 07:48:31;;;;;;;19.10;7.03;;;4.30;99.90;;;;;;5101937;28;20040;-77
2022/12/04 07:51:08;;;;;;;16.30;6.63;;;4.30;99.90;;;;;;5092288;28;20031;-77
2022/12/04 07:53:35;;;;;;;15.53;6.73;;;4.30;99.90;;;;;;5093233;28;20056;-77
2022/12/04 07:56:02;;;;;;;17.43;7.30;;;4.40;99.90;;;;;;5109682;28;20104;-77
2022/12/04 07:58:27;;;;;;;18.57;8.37;;;4.40;99.90;;;;;;5112904;28;20031;-77
2022/12/04 08:00:53;;;;;;;15.87;6.67;;;4.40;99.90;;;;;;5110722;28;20487;-77
2022/12/04 08:03:18;;;;;;;16.63;6.90;;;4.40;99.90;;;;;;5112943;28;20376;-77
2022/12/04 08:05:44;;;;;;;17.43;7.27;;;4.40;99.90;;;;;;5112097;28;20036;-77
2022/12/04 08:08:09;;;;;;;17.37;7.27;;;4.40;99.90;;;;;;5112524;28;20028;-77
2022/12/04 08:10:38;;;;;;;15.90;7.37;;;4.50;99.90;;;;;;5099812;28;20465;-77
2022/12/04 08:13:03;;;;;;;15.93;7.07;;;4.40;99.90;;;;;;5108710;28;20089;-77
2022/12/04 08:15:29;;;;;;;14.60;7.37;;;4.40;99.90;;;;;;5096390;28;20048;-76
2022/12/04 08:17:54;;;;;;;16.50;7.83;;;4.40;99.90;;;;;;5111995;28;20032;-77
2022/12/04 08:20:20;;;;;;;14.43;6.50;;;4.50;99.90;;;;;;5113777;28;20063;-77
2022/12/04 08:22:46;;;;;;;15.70;6.60;;;4.50;99.90;;;;;;5113341;28;20510;-77
2022/12/04 08:25:12;;;;;;;19.40;7.27;;;4.50;99.90;;;;;;5096622;28;20031;-77
2022/12/04 08:27:38;;;;;;;16.80;6.97;;;4.50;99.90;;;;;;5107706;28;20077;-77
2022/12/04 08:30:04;;;;;;;17.07;7.00;;;4.60;99.90;;;;;;5100548;28;20019;-78
2022/12/04 08:32:29;;;;;;;18.03;7.47;;;4.50;99.90;;;;;;5112665;28;20032;-78
2022/12/04 08:34:55;;;;;;;19.37;7.47;;;4.50;99.90;;;;;;5113047;28;20027;-78
2022/12/04 08:37:20;;;;;;;16.50;7.70;;;4.50;99.90;;;;;;5112333;28;20590;-77
2022/12/04 08:39:46;;;;;;;18.40;7.73;;;4.50;99.90;;;;;;5111492;28;20028;-77
2022/12/04 08:42:11;;;;;;;18.90;7.93;;;4.50;99.90;;;;;;5104989;28;20181;-77
2022/12/04 08:44:37;;;;;;;16.67;7.63;;;4.50;99.90;;;;;;5111523;28;20469;-77
2022/12/04 08:47:02;;;;;;;20.63;7.93;;;4.50;99.90;;;;;;5095894;28;20032;-76
2022/12/04 08:49:29;;;;;;;17.47;7.93;;;4.50;99.90;;;;;;5094695;28;20024;-77
2022/12/04 08:51:54;;;;;;;16.43;7.40;;;4.60;99.90;;;;;;5112811;28;20019;-77
2022/12/04 08:54:20;;;;;;;22.27;10.17;;;4.60;99.90;;;;;;5109613;28;20031;-77
2022/12/04 08:56:45;;;;;;;20.20;8.07;;;4.60;99.90;;;;;;5105044;28;20049;-77
2022/12/04 08:59:12;;;;;;;18.53;8.00;;;4.60;99.90;;;;;;5115784;28;20036;-78
2022/12/04 09:01:38;;;;;;;18.37;8.17;;;4.60;99.90;;;;;;5108935;28;20030;-79
2022/12/04 09:04:03;;;;;;;19.83;8.27;;;4.50;99.90;;;;;;5115737;28;20023;-79
2022/12/04 09:06:29;;;;;;;16.00;7.83;;;4.50;99.90;;;;;;5117406;28;20081;-78
2022/12/04 09:08:56;;;;;;;16.03;7.80;;;4.60;99.90;;;;;;5113960;28;20388;-79
2022/12/04 09:11:24;;;;;;;17.97;7.67;;;4.60;99.90;;;;;;5117177;28;20015;-79
2022/12/04 09:13:50;;;;;;;16.23;7.83;;;4.60;99.90;;;;;;5116180;28;20084;-78
2022/12/04 09:16:20;;;;;;;18.20;7.30;;;4.60;99.90;;;;;;5116526;28;20058;-79
2022/12/04 09:18:47;;;;;;;17.43;7.40;;;4.70;99.90;;;;;;5115457;28;20039;-79
2022/12/04 09:21:14;;;;;;;16.97;8.00;;;4.60;99.90;;;;;;5116983;28;20028;-78
2022/12/04 09:23:40;;;;;;;15.33;7.20;;;4.60;99.90;;;;;;5116756;28;20024;-80
2022/12/04 09:26:18;;;;;;;18.97;7.87;;;4.60;99.90;;;;;;5115419;28;20119;-79
2022/12/04 09:28:44;;;;;;;17.73;7.60;;;4.60;99.90;;;;;;5116770;28;20059;-79
2022/12/04 09:31:10;;;;;;;17.03;7.33;;;4.60;99.90;;;;;;5114257;28;20400;-80
2022/12/04 09:33:36;;;;;;;18.70;7.87;;;4.60;99.90;;;;;;5103190;28;20031;-77
2022/12/04 09:36:02;;;;;;;20.97;8.43;;;4.70;99.90;;;;;;5115356;28;20032;-77
2022/12/04 09:38:29;;;;;;;18.13;7.67;;;4.70;99.90;;;;;;5111752;28;20024;-76
2022/12/04 09:41:22;;;;;;;16.30;7.67;;;4.60;99.90;;;;;;5108838;28;20028;-78
2022/12/04 09:44:00;;;;;;;19.53;8.33;;;4.60;99.90;;;;;;5051657;28;20032;-77
2022/12/04 09:46:41;;;;;;;19.33;8.03;;;4.70;99.90;;;;;;5106643;28;20031;-77
2022/12/04 09:49:29;;;;;;;15.93;7.50;;;4.70;99.90;;;;;;5113790;28;20028;-78
2022/12/04 09:51:59;;;;;;;18.57;7.93;;;4.70;99.90;;;;;;5098220;28;20028;-78
2022/12/04 09:54:33;;;;;;;19.40;8.00;;;4.80;99.90;;;;;;5103480;28;20321;-78
2022/12/04 09:57:03;;;;;;;16.73;7.93;;;4.80;99.90;;;;;;5108827;28;20069;-78
2022/12/04 09:59:31;;;;;;;18.80;7.77;;;4.70;99.90;;;;;;5104789;28;20035;-78
2022/12/04 10:02:15;;;;;;;15.73;7.37;;;4.70;99.90;;;;;;5109421;28;20043;-79
2022/12/04 10:04:40;;;;;;;19.87;7.63;;;4.70;99.90;;;;;;5101864;28;20043;-78
2022/12/04 10:07:09;;;;;;;18.73;7.70;;;4.70;99.90;;;;;;5100693;28;20028;-78
2022/12/04 10:09:52;;;;;;;14.63;7.53;;;4.70;99.90;;;;;;5106404;28;20030;-79
2022/12/04 10:12:45;;;;;;;16.67;7.60;;;4.70;99.90;;;;;;5101438;28;20032;-79
2022/12/04 10:15:18;;;;;;;16.70;6.60;;;4.80;99.90;;;;;;5108519;28;20052;-78
2022/12/04 10:17:59;;;;;;;20.43;8.27;;;4.80;99.90;;;;;;5100303;28;20035;-78
2022/12/04 10:20:44;;;;;;;17.40;7.67;;;4.80;99.90;;;;;;5104574;28;20538;-78
2022/12/04 10:23:35;;;;;;;19.60;7.67;;;4.80;99.90;;;;;;5105632;28;20032;-78
2022/12/04 10:26:04;;;;;;;17.63;7.60;;;4.80;99.90;;;;;;5104964;28;20365;-78
2022/12/04 10:28:38;;;;;;;17.90;8.43;;;4.80;99.90;;;;;;5109485;28;20061;-78
2022/12/04 10:31:09;;;;;;;14.57;7.37;;;4.80;99.90;;;;;;5111939;28;20015;-79
2022/12/04 10:33:40;;;;;;;20.53;7.23;;;4.80;99.90;;;;;;5118209;27;20027;-78
2022/12/04 10:36:14;;;;;;;17.67;7.27;;;4.90;99.90;;;;;;5100462;28;20023;-78
2022/12/04 10:38:48;;;;;;;16.73;6.77;;;4.90;99.90;;;;;;5097414;28;20106;-78
2022/12/04 10:41:56;;;;;;;18.20;7.33;;;4.80;99.90;;;;;;5097032;28;20035;-78
2022/12/04 10:44:22;;;;;;;19.87;7.73;;;4.80;99.90;;;;;;5105125;28;20024;-79
2022/12/04 10:46:48;;;;;;;16.80;6.67;;;4.90;99.90;;;;;;5103238;28;20030;-77
2022/12/04 10:49:26;;;;;;;17.63;7.10;;;5.00;99.90;;;;;;5103907;28;20766;-78
2022/12/04 10:51:53;;;;;;;16.33;7.20;;;4.90;99.90;;;;;;5104205;28;20024;-78
2022/12/04 10:54:20;;;;;;;17.93;7.77;;;4.90;99.90;;;;;;5104804;28;20019;-79
2022/12/04 10:57:00;;;;;;;16.07;7.53;;;4.90;99.90;;;;;;5103842;28;20054;-78
2022/12/04 10:59:26;;;;;;;17.50;7.47;;;4.90;99.90;;;;;;5103083;28;20024;-77
2022/12/04 11:02:21;;;;;;;17.30;8.03;;;4.90;99.90;;;;;;5109518;28;20055;-73
2022/12/04 11:04:57;;;;;;;16.00;7.30;;;4.90;99.90;;;;;;5104163;27;20062;-77
2022/12/04 11:07:30;;;;;;;16.23;7.57;;;4.90;99.90;;;;;;5101206;28;20078;-78
2022/12/04 11:10:05;;;;;;;15.93;7.57;;;4.90;99.90;;;;;;5099029;28;20034;-78
2022/12/04 11:12:32;;;;;;;15.40;7.10;;;5.00;99.90;;;;;;5101348;28;20023;-78
2022/12/04 11:15:05;;;;;;;16.33;7.43;;;4.90;99.90;;;;;;5107009;28;20366;-78
2022/12/04 11:17:30;;;;;;;19.67;7.47;;;5.00;99.90;;;;;;5099336;28;20026;-78
2022/12/04 11:20:14;;;;;;;19.70;7.33;;;5.10;99.90;;;;;;5099077;28;20024;-78
2022/12/04 11:22:53;;;;;;;14.90;7.30;;;5.00;99.90;;;;;;5095875;28;20020;-77
2022/12/04 11:25:21;;;;;;;17.47;7.07;;;5.10;99.90;;;;;;5101092;28;20377;-77
2022/12/04 11:27:53;;;;;;;17.03;7.07;;;5.00;99.90;;;;;;5100034;28;20461;-76
2022/12/04 11:30:28;;;;;;;16.45;7.28;;;5.00;99.90;;;;;;5108197;28;20055;-78
2022/12/04 11:32:55;;;;;;;16.23;7.13;;;4.90;99.90;;;;;;5105973;28;20046;-78
2022/12/04 11:35:24;;;;;;;18.80;7.97;;;5.00;99.90;;;;;;5108576;28;20028;-78
2022/12/04 11:38:00;;;;;;;17.20;7.33;;;4.90;99.90;;;;;;5098569;28;20028;-78
2022/12/04 11:40:26;;;;;;;15.77;7.47;;;5.00;99.90;;;;;;5101937;28;20069;-77
2022/12/04 11:43:15;;;;;;;16.77;7.27;;;4.90;99.90;;;;;;5101936;28;20127;-79
2022/12/04 11:45:51;;;;;;;16.77;7.50;;;5.00;99.90;;;;;;5104045;28;20024;-78
2022/12/04 11:48:17;;;;;;;17.70;7.23;;;4.90;99.90;;;;;;5102593;28;20059;-77
2022/12/04 11:50:55;;;;;;;18.83;7.97;;;4.90;99.90;;;;;;5096967;28;20429;-77
2022/12/04 11:53:32;;;;;;;17.33;7.47;;;4.80;99.90;;;;;;5101678;28;20054;-77
2022/12/04 11:56:22;;;;;;;15.83;7.10;;;4.90;99.90;;;;;;5098668;28;20065;-77
2022/12/04 11:59:02;;;;;;;16.30;7.30;;;4.90;99.90;;;;;;5100336;28;20031;-77
2022/12/04 12:01:33;;;;;;;15.73;7.10;;;5.00;99.90;;;;;;5101883;28;20080;-79
2022/12/04 12:04:28;;;;;;;16.15;7.00;;;4.90;99.90;;;;;;5111909;28;20026;-75
2022/12/04 12:06:58;;;;;;;15.63;7.23;;;5.00;99.90;;;;;;5111864;28;20387;-76
2022/12/04 12:09:54;;;;;;;17.53;7.70;;;5.00;99.90;;;;;;5102596;28;20034;-76
2022/12/04 12:12:51;;;;;;;14.73;6.37;;;4.90;99.90;;;;;;5103070;28;20020;-77
2022/12/04 12:15:37;;;;;;;14.10;6.57;;;5.00;99.90;;;;;;5102310;28;20504;-77
2022/12/04 12:18:12;;;;;;;18.23;7.63;;;5.00;99.90;;;;;;5102138;28;20047;-78
2022/12/04 12:21:07;;;;;;;16.53;6.73;;;4.90;99.90;;;;;;5091190;28;20103;-78
2022/12/04 12:23:40;;;;;;;16.90;6.60;;;5.00;99.90;;;;;;5093018;28;20065;-80
2022/12/04 12:26:12;;;;;;;17.37;7.00;;;4.90;99.90;;;;;;5103972;28;20063;-79
2022/12/04 12:28:48;;;;;;;15.93;6.40;;;5.00;99.90;;;;;;5104533;28;20024;-80
2022/12/04 12:31:27;;;;;;;17.33;7.10;;;5.00;99.90;;;;;;5107456;28;20106;-79
2022/12/04 12:34:02;;;;;;;19.97;7.23;;;5.00;99.90;;;;;;5106880;28;20031;-79
2022/12/04 12:36:32;;;;;;;16.87;6.90;;;5.00;99.90;;;;;;5113194;28;20038;-75
2022/12/04 12:39:33;;;;;;;15.60;6.60;;;5.00;99.90;;;;;;5100750;28;20024;-75
2022/12/04 12:42:00;;;;;;;15.57;6.60;;;5.10;99.90;;;;;;5084082;28;20032;-78
2022/12/04 12:44:34;;;;;;;17.93;7.23;;;5.00;99.90;;;;;;5100834;28;20028;-74
2022/12/04 12:47:04;;;;;;;15.73;6.40;;;5.00;99.90;;;;;;5101588;28;20107;-76
2022/12/04 12:49:31;;;;;;;17.77;7.43;;;5.00;99.90;;;;;;5105869;28;20034;-76
2022/12/04 12:52:11;;;;;;;16.90;6.70;;;4.90;99.90;;;;;;5110667;28;20068;-76
2022/12/04 12:54:47;;;;;;;17.20;7.20;;;4.90;99.90;;;;;;5103598;28;20031;-77
2022/12/04 12:57:41;;;;;;;16.13;6.90;;;5.00;99.90;;;;;;5099782;28;20032;-75
2022/12/04 13:00:18;;;;;;;18.93;7.47;;;5.00;99.90;;;;;;5102315;28;20129;-76
2022/12/04 13:02:44;;;;;;;17.73;7.80;;;5.00;99.90;;;;;;5106312;28;20023;-77
2022/12/04 13:05:13;;;;;;;18.20;8.30;;;5.00;99.90;;;;;;5100441;28;20271;-76
2022/12/04 13:08:00;;;;;;;17.03;7.50;;;5.00;99.90;;;;;;5105784;28;20099;-76
2022/12/04 13:11:07;;;;;;;14.80;7.07;;;4.90;99.90;;;;;;5106753;28;20051;-75
2022/12/04 13:13:39;;;;;;;15.73;7.50;;;5.00;99.90;;;;;;5093852;28;20027;-75
2022/12/04 13:16:09;;;;;;;;;;;5.00;99.90;;;;;;5101748;28;20044;-75
2022/12/04 13:18:42;;;;;;;19.47;7.53;;;4.90;99.90;;;;;;5102563;28;19912;-75
2022/12/04 13:21:28;;;;;;;18.63;7.63;;;5.00;99.90;;;;;;5100295;28;20028;-75
2022/12/04 13:24:27;;;;;;;18.67;7.97;;;5.00;99.90;;;;;;5097235;28;20366;-77